OIBS  Sirri Island  Airport

Iran

Add Bookmark
ICAO OIBS
IATA SXI
Type Airport
Status Operational
Latitude
25° 54' 32" N
25.908899
Longitude
54° 32' 21" E
54.539398
Local (GMT +4.5 ) UTC
Aug 29, 2016 10:27 pm Aug 29, 2016 17:57
Sunrise-Sunset Local UTC
Begin Civil Twilight 06:06 am 01:36
Sunrise 06:29 am 01:59
Sunset 07:15 pm 14:45
End Civil Twilight 07:38 pm 15:08
VFR
VFR
MVFR
MVFR
IFR
IFR
LIFR
LIFR
Unknown
Unavailable

Current Weather

METAR Observed VFR
OIBS 291500Z 06008KT CAVOK 34/27 Q1002 Mon, Aug 29, 2016 @ 15:00 UTC
(2 Hours, 57 Minutes ago)
Visual Flight Rules
Wind Visibility Conditions
060° at 8 knots (15 kph) 10 km or more
  • No significant weather
Temperatures Readings Precipitation
Current Temp
34°C
93°F
Dewpoint
27°C
81°F
Heat Index
45°C
113°
Humidity 67%
Altimeter 29.59" Hg
Sea Level Pressure 1,002 mb
Field Elevation
14 m
46 ft
None Recorded

Additional weather within a 92.6km radius of OIBS

Map ICAO Location
OIBA 49.4km E (094°)
OIBL 74.8km N/NE (022°)
OIBK 88.5km NW (321°)
VFR
VFR
MVFR
MVFR
IFR
IFR
LIFR
LIFR
Unknown
Unavailable
-
-

CheckWX.com is intended as a tool to help pilots better visualize weather data. It is not intended as a substitute for an official weather briefing obtained from a Flight Service Station. CheckWX.com does not meet the FAA requirements for an official pre-flight weather briefing. Therefore, it's important that pilots still call and obtain an official FSS pre-flight weather briefing.

© 2007-2016 CheckWX.com
17:57:47 UTC